Latest Weather Observations for Bridgetown

IDW60801

Issued at 12:05 pm WST Saturday 19 April 2014 (issued every 30 minutes, with the page automatically refreshed every 10 minutes)

About weather observations | Map of weather stations | Latest weather observations for WA | Other Formats
Station Details ID: 009617 Name: BRIDGETOWN Lat: -33.95 Lon: 116.13 Height: 178.66 m
Data from the previous 72 hours. | See also: Recent months at Bridgetown
Date/Time
WST
Temp
°C
App
Temp
°C
Dew
Point
Rel
Hum
%
Delta-T
°C
Wind Press
QNH
hPa
Press
MSL
hPa
Rain
since 9 am
mm
Dir
 
Spd
km/h
Gust
km/h
Spd
kts
Gust
kts
19/12:00pm 20.1 18.5 10.2 53 5.4 SSE 9 15 5 8 1018.2 1017.9 0.0
19/11:30am 19.6 18.1 10.6 56 4.9 S 9 17 5 9 1018.3 - 0.0
19/11:00am 19.6 18.8 10.9 57 4.8 S 6 11 3 6 1018.6 1018.3 0.0
19/10:30am 18.6 18.3 12.6 68 3.4 S 6 13 3 7 1018.9 - 0.0
19/10:00am 18.1 18.4 14.4 79 2.1 S 6 11 3 6 1019.4 1019.1 0.0
19/09:30am 15.6 17.0 15.3 98 0.2 SSW 2 4 1 2 1019.7 - 0.0
19/09:00am 13.9 14.3 13.7 99 0.1 SSW 4 6 2 3 1020.1 1019.9 0.0
19/08:30am 13.1 13.3 13.1 100 0.0 SSE 4 6 2 3 1020.1 - 0.0
19/08:00am 12.3 13.0 12.3 100 0.0 CALM 0 0 0 0 1020.1 1019.9 0.0
19/07:30am 11.8 12.4 11.8 100 0.0 CALM 0 0 0 0 1019.8 - 0.0
19/07:00am 11.4 11.8 11.4 100 0.0 CALM 0 0 0 0 1019.6 1019.3 0.0
19/06:30am 11.2 11.6 11.2 100 0.0 CALM 0 0 0 0 1019.6 - 0.0
19/06:00am 11.0 11.3 11.0 100 0.0 SSE 0 0 0 0 1019.4 1019.1 0.0
19/05:30am 10.8 11.1 10.8 100 0.0 CALM 0 0 0 0 1019.3 - 0.0
19/05:00am 10.5 10.7 10.5 100 0.0 CALM 0 0 0 0 1019.1 1018.8 0.0
19/04:30am 10.5 10.7 10.5 100 0.0 CALM 0 0 0 0 1019.0 - 0.0
19/04:00am 10.2 10.3 10.2 100 0.0 CALM 0 0 0 0 1018.8 1018.5 0.0
19/03:30am 9.7 9.7 9.7 100 0.0 CALM 0 0 0 0 1018.8 - 0.0
19/03:00am 9.2 9.0 9.2 100 0.0 CALM 0 0 0 0 1018.9 1018.6 0.0
19/02:30am 8.7 8.4 8.6 99 0.0 CALM 0 0 0 0 1019.1 - 0.0
19/02:00am 8.1 7.6 8.0 99 0.0 CALM 0 0 0 0 1019.5 1019.2 0.0
19/01:30am 8.4 8.0 8.3 99 0.0 CALM 0 0 0 0 1019.7 - 0.0
19/01:00am 9.2 9.0 9.1 99 0.0 CALM 0 0 0 0 1019.9 1019.6 0.0
19/12:30am 9.5 9.4 9.4 99 0.1 CALM 0 0 0 0 1019.9 - 0.0
19/12:00am 10.0 10.0 9.9 99 0.1 SSE 0 0 0 0 1020.0 1019.8 0.0
 
Date/Time
WST
Temp
°C
App
Temp
°C
Dew
Point
Rel
Hum
%
Delta-T
°C
Wind Press
QNH
hPa
Press
MSL
hPa
Rain
since 9 am
mm
Dir
 
Spd
km/h
Gust
km/h
Spd
kts
Gust
kts
18/11:30pm 10.6 10.8 10.4 99 0.1 CALM 0 0 0 0 1020.1 - 0.0
18/11:00pm 11.1 11.4 10.8 98 0.2 CALM 0 0 0 0 1020.4 1020.2 0.0
18/10:30pm 12.1 12.7 11.8 98 0.2 CALM 0 0 0 0 1020.8 - 0.0
18/10:00pm 13.2 13.6 12.6 96 0.3 SSW 2 4 1 2 1021.0 1020.7 0.0
18/09:30pm 14.8 15.2 13.7 93 0.6 S 4 7 2 4 1021.1 - 0.0
18/09:00pm 14.7 15.2 12.7 88 1.1 S 2 6 1 3 1021.1 1020.8 0.0
18/08:30pm 15.8 15.4 12.5 81 1.8 S 6 9 3 5 1021.0 - 0.0
18/08:00pm 16.5 16.0 12.5 77 2.2 SSW 7 13 4 7 1020.8 1020.5 0.0
18/07:30pm 17.2 16.7 12.5 74 2.6 S 7 11 4 6 1020.5 - 0.0
18/07:00pm 18.1 17.3 13.0 72 2.9 SSW 9 13 5 7 1020.2 1020.0 0.0
18/06:30pm 18.9 18.4 12.6 67 3.6 SW 7 17 4 9 1019.8 - 0.0
18/06:00pm 20.2 19.7 10.6 54 5.2 SSW 4 7 2 4 1019.2 1018.9 0.0
18/05:30pm 21.3 21.5 10.5 50 5.9 CALM 0 0 0 0 1019.1 - 0.0
18/05:00pm 22.4 21.4 10.2 46 6.7 SW 6 11 3 6 1019.1 1018.8 0.0
18/04:30pm 22.7 22.3 9.8 44 7.1 SE 2 6 1 3 1018.9 - 0.0
18/04:00pm 22.8 22.0 9.6 43 7.2 SW 4 11 2 6 1019.1 1018.8 0.0
18/03:30pm 23.1 22.6 9.5 42 7.4 ENE 2 7 1 4 1019.2 - 0.0
18/03:00pm 22.9 22.1 9.7 43 7.2 W 4 9 2 5 1019.4 1019.1 0.0
18/02:30pm 22.8 21.6 10.3 45 6.9 NNW 7 11 4 6 1019.4 - 0.0
18/02:00pm 23.3 22.4 10.7 45 7.0 ESE 6 9 3 5 1019.6 1019.3 0.0
18/01:30pm 22.6 22.8 10.4 46 6.7 CALM 0 2 0 1 1019.9 - 0.0
18/01:00pm 22.4 21.7 10.2 46 6.7 N 4 7 2 4 1020.4 1020.2 0.0
18/12:30pm 21.9 21.5 11.0 50 6.1 SSE 4 9 2 5 1021.0 - 0.0
18/12:00pm 21.0 20.6 11.1 53 5.5 ESE 4 13 2 7 1021.5 1021.2 0.0
18/11:30am 20.3 18.8 10.4 53 5.4 NNE 9 15 5 8 1022.0 - 0.0
18/11:00am 21.4 20.9 12.5 57 5.1 ENE 7 15 4 8 1022.5 1022.2 0.0
18/10:30am 20.0 19.0 12.3 61 4.3 ENE 9 15 5 8 1022.8 - 0.0
18/10:00am 19.8 19.0 12.8 64 4.0 ENE 9 17 5 9 1023.0 1022.7 0.0
18/09:30am 18.4 17.7 13.3 72 2.9 ENE 9 15 5 8 1023.5 - 0.0
18/09:00am 14.8 15.6 13.8 94 0.6 S 2 7 1 4 1023.7 1023.4 0.2
18/08:30am 12.0 12.6 12.0 100 0.0 CALM 0 0 0 0 1024.0 - 0.2
18/08:00am 10.3 10.4 10.3 100 0.0 CALM 0 0 0 0 1024.1 1023.8 0.2
18/07:30am 9.2 9.0 9.2 100 0.0 CALM 0 0 0 0 1024.0 - 0.2
18/07:00am 8.4 8.0 8.4 100 0.0 CALM 0 0 0 0 1023.9 1023.6 0.2
18/06:30am 8.2 7.8 8.2 100 0.0 CALM 0 0 0 0 1024.0 - 0.2
18/06:00am 8.3 7.9 8.3 100 0.0 CALM 0 0 0 0 1024.1 1023.8 0.2
18/05:30am 8.4 8.0 8.4 100 0.0 CALM 0 0 0 0 1024.0 - 0.2
18/05:00am 8.4 8.0 8.4 100 0.0 CALM 0 0 0 0 1024.0 1023.7 0.0
18/04:30am 8.4 8.0 8.4 100 0.0 CALM 0 0 0 0 1024.1 - 0.0
18/04:00am 8.0 7.5 8.0 100 0.0 CALM 0 0 0 0 1023.9 1023.6 0.0
18/03:30am 7.7 7.1 7.6 99 0.0 CALM 0 0 0 0 1023.9 - 0.0
18/03:00am 8.1 7.6 8.0 99 0.0 CALM 0 0 0 0 1023.9 1023.6 0.0
18/02:30am 8.4 7.6 8.3 99 0.0 WNW 2 4 1 2 1024.0 - 0.0
18/02:00am 8.7 8.4 8.6 99 0.0 CALM 0 0 0 0 1024.1 1023.8 0.0
18/01:30am 9.2 9.0 9.1 99 0.0 CALM 0 0 0 0 1024.4 - 0.0
18/01:00am 10.3 10.4 10.1 99 0.1 CALM 0 0 0 0 1024.4 1024.1 0.0
18/12:30am 10.5 10.6 10.3 99 0.1 CALM 0 0 0 0 1024.3 - 0.0
18/12:00am 10.5 10.6 10.3 99 0.1 CALM 0 0 0 0 1024.4 1024.1 0.0
 
Date/Time
WST
Temp
°C
App
Temp
°C
Dew
Point
Rel
Hum
%
Delta-T
°C
Wind Press
QNH
hPa
Press
MSL
hPa
Rain
since 9 am
mm
Dir
 
Spd
km/h
Gust
km/h
Spd
kts
Gust
kts
17/11:30pm 11.2 11.5 11.0 99 0.1 CALM 0 0 0 0 1024.4 - 0.0
17/11:00pm 12.6 13.4 12.4 99 0.1 CALM 0 0 0 0 1024.5 1024.2 0.0
17/10:30pm 13.5 13.7 13.2 98 0.2 S 4 6 2 3 1024.6 - 0.0
17/10:00pm 14.0 14.4 13.7 98 0.2 S 4 9 2 5 1024.7 1024.4 0.0
17/09:30pm 14.3 14.4 14.0 98 0.2 S 6 11 3 6 1024.5 - 0.0
17/09:00pm 13.3 14.0 12.2 93 0.6 CALM 0 0 0 0 1024.3 1024.0 0.0
17/08:30pm 15.1 15.3 13.0 87 1.2 S 4 7 2 4 1024.1 - 0.0
17/08:00pm 15.3 16.0 12.1 81 1.7 CALM 0 4 0 2 1023.9 1023.6 0.0
17/07:30pm 15.8 16.0 11.8 77 2.2 SSE 2 4 1 2 1023.6 - 0.0
17/07:00pm 16.8 16.1 11.5 71 2.9 S 6 9 3 5 1023.4 1023.1 0.0
17/06:30pm 17.4 16.3 10.5 64 3.7 S 7 13 4 7 1023.1 - 0.0
17/06:00pm 17.9 16.9 10.3 61 4.1 S 6 7 3 4 1022.7 1022.4 0.0
17/05:30pm 18.9 17.9 10.2 57 4.7 SSW 6 11 3 6 1022.5 - 0.0
17/05:00pm 19.4 17.4 10.1 55 5.0 SSW 11 20 6 11 1022.3 1022.0 0.0
17/04:30pm 19.6 17.2 10.0 54 5.2 S 13 22 7 12 1022.1 - 0.0
17/04:00pm 20.0 17.9 11.0 56 4.9 SSW 13 28 7 15 1022.0 1021.7 0.0
17/03:30pm 20.3 18.1 10.7 54 5.3 SSW 13 22 7 12 1021.8 - 0.0
17/03:00pm 21.5 18.7 8.4 43 6.9 SSW 13 22 7 12 1021.7 1021.4 0.0
17/02:30pm 21.9 19.4 9.8 46 6.6 SSW 13 24 7 13 1021.6 - 0.0
17/02:00pm 20.7 18.4 10.5 52 5.6 SSW 13 22 7 12 1021.6 1021.3 0.0
17/01:30pm 21.2 18.9 10.4 50 5.9 SSW 13 24 7 13 1021.5 - 0.0
17/01:00pm 20.9 18.2 10.4 51 5.7 SSW 15 24 8 13 1021.6 1021.3 0.0
17/12:30pm 21.1 19.4 9.7 48 6.2 SW 9 20 5 11 1021.9 - 0.0
17/12:00pm 21.7 20.8 11.4 52 5.7 SSW 7 17 4 9 1022.1 1021.8 0.0
17/11:30am 20.8 19.9 12.5 59 4.7 SW 9 19 5 10 1022.3 - 0.0
17/11:00am 20.1 19.6 12.6 62 4.2 SW 7 13 4 7 1022.3 1022.0 0.0
17/10:30am 19.0 18.4 13.6 71 3.1 SSW 9 22 5 12 1022.4 - 0.0
17/10:00am 18.0 18.6 15.3 84 1.6 W 6 13 3 7 1022.5 1022.2 0.0
17/09:30am 17.0 18.4 16.5 97 0.3 W 4 11 2 6 1022.5 - 0.0
17/09:00am 17.8 17.8 14.1 79 2.1 W 7 13 4 7 1022.1 1021.8 0.0
17/08:30am 17.7 17.8 14.0 79 2.1 NNW 6 9 3 5 1022.1 - 0.0
17/08:00am 16.6 16.7 13.9 84 1.5 WNW 6 11 3 6 1021.8 1021.5 0.0
17/07:30am 16.0 16.8 13.8 87 1.3 NNW 2 4 1 2 1021.3 - 0.0
17/07:00am 15.5 16.8 14.0 91 0.9 CALM 0 0 0 0 1021.1 1020.8 0.0
17/06:30am 15.2 16.0 13.7 91 0.8 NW 2 4 1 2 1020.7 - 0.0
17/06:00am 15.0 15.4 13.7 92 0.7 NW 4 6 2 3 1020.4 1020.2 0.0
17/05:30am 14.9 14.9 13.6 92 0.7 NNW 6 7 3 4 1020.1 - 0.0
17/05:00am 15.4 16.1 13.4 88 1.1 NNW 2 7 1 4 1020.0 1019.8 0.0
17/04:30am 15.4 15.3 13.4 88 1.1 N 6 7 3 4 1019.9 - 0.0
17/04:00am 15.3 15.9 13.2 87 1.2 N 2 4 1 2 1019.9 1019.6 0.0
17/03:30am 15.2 16.3 13.4 89 1.0 CALM 0 0 0 0 1019.9 - 0.0
17/03:00am 15.1 15.6 12.8 86 1.3 W 2 6 1 3 1019.9 1019.6 0.0
17/02:30am 14.4 14.7 12.1 86 1.3 NNW 2 6 1 3 1020.1 - 0.0
17/02:00am 14.8 14.3 11.9 83 1.6 NNW 6 7 3 4 1020.1 1019.9 0.0
17/01:30am 13.8 14.0 11.8 88 1.1 NNW 2 4 1 2 1020.1 - 0.0
17/01:00am 13.3 13.8 11.7 90 0.9 CALM 0 0 0 0 1020.2 1020.0 0.0
17/12:30am 12.9 13.4 11.5 91 0.7 CALM 0 0 0 0 1020.0 - 0.0
17/12:00am 12.3 12.8 11.7 96 0.3 CALM 0 0 0 0 1020.2 1020.0 0.0
 
Date/Time
WST
Temp
°C
App
Temp
°C
Dew
Point
Rel
Hum
%
Delta-T
°C
Wind Press
QNH
hPa
Press
MSL
hPa
Rain
since 9 am
mm
Dir
 
Spd
km/h
Gust
km/h
Spd
kts
Gust
kts
16/11:30pm 11.7 12.1 11.4 98 0.2 CALM 0 0 0 0 1020.3 - 0.0
16/11:00pm 11.6 11.9 10.8 95 0.4 CALM 0 4 0 2 1020.8 1020.5 0.0
16/10:30pm 12.0 12.2 10.7 92 0.7 CALM 0 2 0 1 1020.9 - 0.0
16/10:00pm 12.3 12.6 11.0 92 0.7 CALM 0 0 0 0 1021.0 1020.7 0.0
16/09:30pm 13.2 13.4 10.6 84 1.4 CALM 0 0 0 0 1021.0 - 0.0
16/09:00pm 14.7 15.0 10.9 78 2.0 CALM 0 4 0 2 1020.9 1020.6 0.0
16/08:30pm 15.6 15.9 10.8 73 2.6 CALM 0 4 0 2 1020.7 - 0.0
16/08:00pm 16.4 15.9 10.7 69 3.1 SSW 4 7 2 4 1020.8 1020.5 0.0
16/07:30pm 16.3 16.3 11.2 72 2.8 SW 2 6 1 3 1020.5 - 0.0
16/07:00pm 14.8 14.9 10.2 74 2.4 CALM 0 0 0 0 1020.4 1020.2 0.0
16/06:30pm 15.6 15.6 9.7 68 3.1 CALM 0 0 0 0 1020.3 - 0.0
16/06:00pm 16.7 16.7 9.9 64 3.6 CALM 0 0 0 0 1020.2 1020.0 0.0
16/05:30pm 18.1 18.1 9.7 58 4.5 CALM 0 0 0 0 1020.1 - 0.0
16/05:00pm 19.3 18.2 10.0 55 5.0 WSW 6 11 3 6 1020.0 1019.8 0.0
16/04:30pm 20.1 18.8 9.9 52 5.5 WSW 7 13 4 7 1020.1 - 0.0
16/04:00pm 20.5 19.2 10.0 51 5.7 W 7 17 4 9 1020.2 1020.0 0.0
16/03:30pm 21.0 19.7 9.9 49 6.0 WNW 7 15 4 8 1020.3 - 0.0
16/03:00pm 19.9 18.2 10.0 53 5.3 W 9 15 5 8 1020.7 1020.4 0.0
16/02:30pm 21.6 20.3 9.8 47 6.4 W 7 15 4 8 1020.9 - 0.0
16/02:00pm 20.3 18.8 9.2 49 5.9 W 7 13 4 7 1021.0 1020.7 0.0
16/01:30pm 20.0 18.8 9.6 51 5.6 SW 6 13 3 7 1021.2 - 0.0
16/01:00pm 20.3 18.8 9.2 49 5.9 W 7 13 4 7 1021.7 1021.4 0.0
16/12:30pm 19.8 17.9 9.1 50 5.7 WNW 9 15 5 8 1022.2 - 0.0

Other Formats:

Comma delimited format used in spreadsheet applications
http://www.bom.gov.au/fwo/IDW60801/IDW60801.95632.axf

JavaScript Object Notation format (JSON) in row-major order
http://www.bom.gov.au/fwo/IDW60801/IDW60801.95632.json